Time;durP1;ratioP1;P1;durP2;ratioP2;P2;SDS_P1;SDS_P2;PMS_P1;PMS_P2;Temp;Humidity;BMP_temperature;BMP_pressure;BME280_temperature;BME280_humidity;BME280_pressure;Samples;Min_cycle;Max_cycle;Signal;HPM_P1;HPM_P2
2024/01/22 00:00:25;;;;;;;;;;;;;;;-2.66;77.59;101740.28;3131759;28;19925;-67
2024/01/22 00:01:57;;;;;;;;;;;;;;;-2.67;77.50;101745.28;3126308;28;20418;-66
2024/01/22 00:03:29;;;;;;;;;;;;;;;-2.69;77.51;101752.91;3132292;28;19976;-67
2024/01/22 00:04:59;;;;;;;;;;;;;;;-2.72;77.57;101754.44;3132560;28;19928;-65
2024/01/22 00:06:31;;;;;;;;;;;;;;;-2.72;77.49;101755.31;3132447;28;19925;-69
2024/01/22 00:08:02;;;;;;;;;;;;;;;-2.74;77.40;101756.94;3131989;28;20397;-66
2024/01/22 00:09:34;;;;;;;;;;;;;;;-2.75;77.47;101760.31;3132735;28;19939;-66
2024/01/22 00:11:05;;;;;;;;;;;;;;;-2.76;77.49;101761.09;3132478;28;20427;-65
2024/01/22 00:12:37;;;;;;;;;;;;;;;-2.78;77.55;101758.50;3132195;28;19929;-65
2024/01/22 00:14:08;;;;;;;;;;;;;;;-2.80;77.42;101762.66;3132027;28;19924;-67
2024/01/22 00:15:39;;;;;;;;;;;;;;;-2.80;77.43;101769.44;3131974;28;20630;-68
2024/01/22 00:17:11;;;;;;;;;;;;;;;-2.82;77.36;101765.94;3132337;28;19929;-68
2024/01/22 00:18:43;;;;;;;;;;;;;;;-2.85;77.22;101769.22;3132135;28;19936;-68
2024/01/22 00:20:13;;;;;;;;;;;;;;;-2.87;77.33;101767.44;3131951;28;19925;-68
2024/01/22 00:21:45;;;;;;;;;;;;;;;-2.88;77.46;101761.47;3132253;28;19929;-68
2024/01/22 00:23:15;;;;;;;;;;;;;;;-2.89;77.50;101761.41;3132188;28;20416;-65
2024/01/22 00:24:47;;;;;;;;;;;;;;;-2.90;77.33;101762.19;3132194;28;19944;-65
2024/01/22 00:26:18;;;;;;;;;;;;;;;-2.91;77.32;101766.44;3132066;28;20321;-66
2024/01/22 00:27:49;;;;;;;;;;;;;;;-2.92;77.19;101771.50;3131866;28;19928;-69
2024/01/22 00:29:20;;;;;;;;;;;;;;;-2.93;77.33;101767.19;3132342;28;19929;-67
2024/01/22 00:30:51;;;;;;;;;;;;;;;-2.95;77.44;101764.59;3132017;28;19944;-66
2024/01/22 00:32:23;;;;;;;;;;;;;;;-2.95;77.47;101771.38;3131788;28;20038;-65
2024/01/22 00:33:55;;;;;;;;;;;;;;;-2.95;77.39;101768.81;3132087;28;19975;-66
2024/01/22 00:35:25;;;;;;;;;;;;;;;-2.95;77.37;101766.25;3131833;28;20343;-67
2024/01/22 00:36:57;;;;;;;;;;;;;;;-2.94;77.35;101765.44;3132213;28;19931;-65
2024/01/22 00:38:27;;;;;;;;;;;;;;;-2.93;77.38;101762.06;3132147;28;20424;-65
2024/01/22 00:39:59;;;;;;;;;;;;;;;-2.91;77.18;101766.44;3131727;28;19929;-68
2024/01/22 00:41:29;;;;;;;;;;;;;;;-2.89;77.20;101763.97;3132001;28;20409;-66
2024/01/22 00:43:01;;;;;;;;;;;;;;;-2.90;77.13;101764.75;3132284;28;19925;-67
2024/01/22 00:44:31;;;;;;;;;;;;;;;-2.91;77.20;101771.53;3132116;28;19925;-67
2024/01/22 00:46:03;;;;;;;;;;;;;;;-2.91;77.13;101769.00;3131603;28;19929;-66
2024/01/22 00:47:36;;;;;;;;;;;;;;;-2.90;77.03;101768.16;3131935;28;19924;-66
2024/01/22 00:49:07;;;;;;;;;;;;;;;-2.89;77.21;101763.97;3131941;28;19925;-66
2024/01/22 00:50:38;;;;;;;;;;;;;;;-2.87;77.06;101770.88;3132168;28;20331;-67
2024/01/22 00:52:09;;;;;;;;;;;;;;;-2.87;76.97;101767.44;3131830;28;19928;-68
2024/01/22 00:53:40;;;;;;;;;;;;;;;-2.87;76.98;101763.22;3132077;28;19935;-66
2024/01/22 00:55:11;;;;;;;;;;;;;;;-2.86;76.87;101767.50;3132054;28;20385;-66
2024/01/22 00:56:42;;;;;;;;;;;;;;;-2.85;76.83;101770.91;3132022;28;19925;-66
2024/01/22 00:58:13;;;;;;;;;;;;;;;-2.85;76.66;101765.81;3131954;28;20334;-65
2024/01/22 00:59:44;;;;;;;;;;;;;;;-2.84;76.54;101767.56;3131630;28;19984;-65
2024/01/22 01:01:15;;;;;;;;;;;;;;;-2.85;76.50;101763.28;3132167;28;20341;-66
2024/01/22 01:02:49;;;;;;;;;;;;;;;-2.86;76.38;101759.84;3134326;28;20392;-66
2024/01/22 01:04:21;;;;;;;;;;;;;;;-2.84;76.47;101762.44;3125307;28;19979;-66
2024/01/22 01:05:51;;;;;;;;;;;;;;;-2.82;76.39;101756.63;3134233;28;19929;-67
2024/01/22 01:07:23;;;;;;;;;;;;;;;-2.80;76.43;101766.88;3134239;28;19947;-68
2024/01/22 01:08:54;;;;;;;;;;;;;;;-2.78;76.47;101760.16;3134567;28;20298;-67
2024/01/22 01:10:25;;;;;;;;;;;;;;;-2.78;76.48;101767.81;3134614;28;19929;-67
2024/01/22 01:11:56;;;;;;;;;;;;;;;-2.79;76.28;101760.97;3134142;28;19925;-67
2024/01/22 01:13:27;;;;;;;;;;;;;;;-2.78;76.33;101763.59;3134511;28;20406;-68
2024/01/22 01:14:58;;;;;;;;;;;;;;;-3.57;76.10;101623.59;3134313;28;19935;-65
2024/01/22 01:16:30;;;;;;;;;;;;;;;-2.79;76.39;101758.41;3134088;28;20258;-68
2024/01/22 01:18:01;;;;;;;;;;;;;;;-2.81;76.18;101758.38;3134177;28;20434;-65
2024/01/22 01:19:33;;;;;;;;;;;;;;;-2.84;76.31;101750.59;3133958;28;20011;-65
2024/01/22 01:21:04;;;;;;;;;;;;;;;-2.84;76.32;101744.59;3134279;28;19932;-65
2024/01/22 01:22:35;;;;;;;;;;;;;;;-2.85;76.21;101746.28;3134066;28;20402;-67
2024/01/22 01:24:06;;;;;;;;;;;;;;;-2.83;76.23;101743.81;3134146;28;19925;-69
2024/01/22 01:25:37;;;;;;;;;;;;;;;-2.83;76.31;101744.69;3133869;28;20015;-66
2024/01/22 01:27:08;;;;;;;;;;;;;;;-2.83;76.21;101749.78;3134073;28;19935;-70
2024/01/22 01:28:39;;;;;;;;;;;;;;;-2.83;76.33;101746.38;3133995;28;19936;-69
2024/01/22 01:30:10;;;;;;;;;;;;;;;-2.81;76.30;101747.28;3134009;28;19933;-69
2024/01/22 01:31:42;;;;;;;;;;;;;;;-2.82;76.16;101750.66;3133638;28;19925;-67
2024/01/22 01:33:14;;;;;;;;;;;;;;;-2.84;76.08;101752.25;3134064;28;19936;-66
2024/01/22 01:34:45;;;;;;;;;;;;;;;-2.85;76.18;101750.53;3134255;28;20058;-70
2024/01/22 01:36:16;;;;;;;;;;;;;;;-2.86;76.34;101743.69;3134129;28;19924;-68
2024/01/22 01:37:47;;;;;;;;;;;;;;;-2.88;76.21;101748.72;3133987;28;19929;-70
2024/01/22 01:39:18;;;;;;;;;;;;;;;-2.91;76.17;101745.19;3133491;28;20409;-69
2024/01/22 01:40:49;;;;;;;;;;;;;;;-2.92;76.11;101744.31;3134046;28;19932;-67
2024/01/22 01:42:20;;;;;;;;;;;;;;;-2.92;76.14;101746.88;3130903;28;19928;-70
2024/01/22 01:43:51;;;;;;;;;;;;;;;-2.92;76.04;101748.53;3133866;28;20470;-67
2024/01/22 01:45:22;;;;;;;;;;;;;;;-2.93;76.10;101746.78;3133892;28;19936;-66
2024/01/22 01:46:53;;;;;;;;;;;;;;;-2.92;76.17;101741.75;3133664;28;19925;-66
2024/01/22 01:48:26;;;;;;;;;;;;;;;-2.91;76.23;101746.03;3133854;28;19928;-68
2024/01/22 01:49:57;;;;;;;;;;;;;;;-2.90;75.99;101734.16;3133908;28;20038;-68
2024/01/22 01:51:29;;;;;;;;;;;;;;;-2.89;75.97;101743.56;3133628;28;20322;-66
2024/01/22 01:53:00;;;;;;;;;;;;;;;-2.89;75.86;101733.38;3134044;28;19936;-67
2024/01/22 01:54:32;;;;;;;;;;;;;;;-2.87;75.91;101739.38;3133564;28;19932;-70
2024/01/22 01:56:03;;;;;;;;;;;;;;;-2.88;75.88;101738.53;3133319;28;19955;-70
2024/01/22 01:57:35;;;;;;;;;;;;;;;-2.89;75.94;101735.91;3133695;28;19944;-69
2024/01/22 01:59:06;;;;;;;;;;;;;;;-2.90;75.86;101736.72;3133564;28;19940;-68
2024/01/22 02:00:37;;;;;;;;;;;;;;;-2.91;75.89;101729.88;3133578;28;19928;-68
2024/01/22 02:02:08;;;;;;;;;;;;;;;-2.92;75.73;101733.25;3133661;28;20406;-69
2024/01/22 02:03:41;;;;;;;;;;;;;;;-2.95;75.95;101726.34;3133798;28;19929;-68
2024/01/22 02:05:13;;;;;;;;;;;;;;;-2.95;75.89;101733.13;3133783;28;19998;-68
2024/01/22 02:06:45;;;;;;;;;;;;;;;-2.96;75.98;101734.78;3133522;28;20386;-70
2024/01/22 02:08:15;;;;;;;;;;;;;;;-2.97;75.91;101736.47;3133642;28;19924;-68
2024/01/22 02:09:47;;;;;;;;;;;;;;;-2.97;75.92;101733.03;3133402;28;20360;-67
2024/01/22 02:11:20;;;;;;;;;;;;;;;-2.98;75.88;101737.28;3133490;28;19925;-68
2024/01/22 02:12:51;;;;;;;;;;;;;;;-2.99;75.81;101737.19;3133022;28;19925;-69
2024/01/22 02:14:22;;;;;;;;;;;;;;;-3.30;75.74;101686.66;3133184;28;19929;-69
2024/01/22 02:15:53;;;;;;;;;;;;;;;-3.00;75.87;101738.03;3133407;28;19924;-68
2024/01/22 02:17:24;;;;;;;;;;;;;;;-3.02;75.87;101737.97;3133623;28;19944;-70
2024/01/22 02:18:56;;;;;;;;;;;;;;;-3.02;75.69;101735.44;3133660;28;19928;-67
2024/01/22 02:20:28;;;;;;;;;;;;;;;-3.03;75.69;101736.22;3133702;28;19933;-71
2024/01/22 02:21:58;;;;;;;;;;;;;;;-3.04;75.62;101739.59;3133322;28;19928;-68
2024/01/22 02:23:31;;;;;;;;;;;;;;;-3.06;75.68;101745.41;3133629;28;19936;-69
2024/01/22 02:25:03;;;;;;;;;;;;;;;-3.10;75.53;101735.91;3133446;28;19925;-67
2024/01/22 02:26:34;;;;;;;;;;;;;;;-3.14;75.68;101732.34;3133363;28;19929;-68
2024/01/22 02:28:05;;;;;;;;;;;;;;;-3.17;75.69;101732.22;3133080;28;20477;-70
2024/01/22 02:29:36;;;;;;;;;;;;;;;-3.16;75.70;101726.34;3133130;28;19924;-70
2024/01/22 02:31:08;;;;;;;;;;;;;;;-3.15;75.65;101725.53;3133361;28;19924;-70
2024/01/22 02:32:40;;;;;;;;;;;;;;;-3.15;75.58;101728.06;3133470;28;20034;-69
2024/01/22 02:34:11;;;;;;;;;;;;;;;-3.18;75.33;101721.97;3133194;28;19928;-72
2024/01/22 02:35:43;;;;;;;;;;;;;;;-3.61;75.54;101652.25;3133351;28;19931;-69
2024/01/22 02:37:15;;;;;;;;;;;;;;;-3.22;75.47;101721.84;3133258;28;19936;-69
2024/01/22 02:38:48;;;;;;;;;;;;;;;-3.23;75.46;101721.78;3133112;28;19971;-73
2024/01/22 02:40:18;;;;;;;;;;;;;;;-3.64;75.28;101654.69;3133588;28;19929;-71
2024/01/22 02:41:49;;;;;;;;;;;;;;;-3.28;75.38;101721.59;3133141;28;20040;-68
2024/01/22 02:43:20;;;;;;;;;;;;;;;-3.27;75.25;101725.88;3133547;28;19929;-69
2024/01/22 02:44:52;;;;;;;;;;;;;;;-3.27;75.27;101719.91;3133074;28;19936;-68
2024/01/22 02:46:24;;;;;;;;;;;;;;;-3.26;75.27;101719.09;3132617;28;19939;-70
2024/01/22 02:47:56;;;;;;;;;;;;;;;-3.29;75.14;101724.06;3133291;28;19929;-70
2024/01/22 02:49:27;;;;;;;;;;;;;;;-3.29;75.11;101729.16;3132472;28;19924;-69
2024/01/22 02:50:58;;;;;;;;;;;;;;;-3.30;74.97;101737.63;3133476;28;19925;-67
2024/01/22 02:52:29;;;;;;;;;;;;;;;-3.33;74.80;101730.72;3133140;28;19928;-68
2024/01/22 02:54:01;;;;;;;;;;;;;;;-3.37;74.85;101733.97;3133091;28;19928;-68
2024/01/22 02:55:32;;;;;;;;;;;;;;;-3.42;75.00;101729.47;3133255;28;19924;-72
2024/01/22 02:57:04;;;;;;;;;;;;;;;-3.44;74.93;101735.34;3133226;28;20458;-80
2024/01/22 02:58:35;;;;;;;;;;;;;;;-3.48;74.84;101730.94;3133139;28;19929;-72
2024/01/22 03:00:07;;;;;;;;;;;;;;;-3.49;74.77;101725.75;3133278;28;20094;-74
2024/01/22 03:01:38;;;;;;;;;;;;;;;-3.50;74.93;101722.34;3132431;28;19931;-71
2024/01/22 03:03:09;;;;;;;;;;;;;;;-3.50;74.78;101716.41;3133218;28;19929;-71
2024/01/22 03:04:40;;;;;;;;;;;;;;;-3.50;74.80;101724.91;3133117;28;19928;-71
2024/01/22 03:06:12;;;;;;;;;;;;;;;-3.50;74.85;101722.34;3132732;28;19936;-70
2024/01/22 03:07:42;;;;;;;;;;;;;;;-3.48;74.74;101724.97;3132726;28;19929;-68
2024/01/22 03:09:15;;;;;;;;;;;;;;;-3.47;74.78;101727.56;3132880;28;20436;-71
2024/01/22 03:10:46;;;;;;;;;;;;;;;-3.45;74.62;101725.09;3133135;28;19929;-69
2024/01/22 03:12:17;;;;;;;;;;;;;;;-3.45;74.76;101731.06;3133090;28;19959;-69
2024/01/22 03:13:48;;;;;;;;;;;;;;;-3.46;74.58;101725.91;3132842;28;19936;-75
2024/01/22 03:15:19;;;;;;;;;;;;;;;-3.47;74.67;101730.13;3132982;28;19925;-70
2024/01/22 03:16:50;;;;;;;;;;;;;;;-3.48;74.68;101732.63;3132927;28;19924;-65
2024/01/22 03:18:21;;;;;;;;;;;;;;;-3.47;74.54;101731.81;3132748;28;19929;-66
2024/01/22 03:19:52;;;;;;;;;;;;;;;-3.48;74.61;101736.03;3132824;28;19928;-68
2024/01/22 03:21:24;;;;;;;;;;;;;;;-3.49;74.57;101734.31;3132766;28;19929;-70
2024/01/22 03:22:55;;;;;;;;;;;;;;;-3.50;74.43;101736.78;3132869;28;19929;-69
2024/01/22 03:24:28;;;;;;;;;;;;;;;-3.51;74.49;101728.25;3132548;28;19936;-70
2024/01/22 03:25:59;;;;;;;;;;;;;;;-3.51;74.61;101740.13;3132845;28;19988;-69
2024/01/22 03:27:31;;;;;;;;;;;;;;;-3.51;74.38;101742.69;3133005;28;20384;-65
2024/01/22 03:29:01;;;;;;;;;;;;;;;-3.50;74.45;101746.97;3132646;28;20353;-66
2024/01/22 03:30:33;;;;;;;;;;;;;;;-3.52;74.23;101749.47;3132587;28;19924;-67
2024/01/22 03:32:04;;;;;;;;;;;;;;;-3.53;74.40;101745.16;3132357;28;19929;-66
2024/01/22 03:33:35;;;;;;;;;;;;;;;-3.56;74.19;101747.56;3132536;28;20413;-68
2024/01/22 03:35:07;;;;;;;;;;;;;;;-3.58;74.23;101749.19;3132651;28;19925;-67
2024/01/22 03:36:37;;;;;;;;;;;;;;;-3.60;74.22;101750.78;3132488;28;19932;-66
2024/01/22 03:38:09;;;;;;;;;;;;;;;-3.62;74.04;101749.84;3132554;28;19929;-66
2024/01/22 03:39:41;;;;;;;;;;;;;;;-3.64;74.18;101745.47;3132378;28;19933;-66
2024/01/22 03:41:12;;;;;;;;;;;;;;;-3.67;74.13;101748.75;3132517;28;20007;-65
2024/01/22 03:42:43;;;;;;;;;;;;;;;-3.68;74.25;101754.66;3132614;28;20428;-65
2024/01/22 03:44:15;;;;;;;;;;;;;;;-3.71;74.08;101755.41;3132427;28;19928;-67
2024/01/22 03:45:45;;;;;;;;;;;;;;;-3.70;74.18;101759.72;3132405;28;19929;-66
2024/01/22 03:47:17;;;;;;;;;;;;;;;-3.70;74.15;101757.16;3132637;28;19925;-70
2024/01/22 03:48:47;;;;;;;;;;;;;;;-3.71;74.21;101757.94;3132068;28;19925;-68
2024/01/22 03:50:19;;;;;;;;;;;;;;;-3.74;74.29;101768.00;3132435;28;19925;-68
2024/01/22 03:51:50;;;;;;;;;;;;;;;-3.76;74.25;101758.53;3132213;28;19937;-69
2024/01/22 03:53:21;;;;;;;;;;;;;;;-3.79;74.21;101763.50;3132228;28;20373;-67
2024/01/22 03:54:54;;;;;;;;;;;;;;;-3.81;74.38;101765.13;3132489;28;19928;-68
2024/01/22 03:56:24;;;;;;;;;;;;;;;-3.84;74.33;101762.44;3132104;28;19952;-68
2024/01/22 03:57:56;;;;;;;;;;;;;;;-3.84;74.35;101770.94;3132495;28;20378;-69
2024/01/22 03:59:27;;;;;;;;;;;;;;;-3.86;74.38;101770.00;3132246;28;19924;-69
2024/01/22 04:00:58;;;;;;;;;;;;;;;-3.86;74.39;101770.00;3131926;28;20058;-68
2024/01/22 04:02:31;;;;;;;;;;;;;;;-3.87;74.07;101768.25;3132432;28;19924;-68
2024/01/22 04:04:04;;;;;;;;;;;;;;;-3.90;74.04;101773.22;3132544;28;19928;-68
2024/01/22 04:05:35;;;;;;;;;;;;;;;-3.94;74.00;101771.31;3132446;28;19929;-69
2024/01/22 04:07:06;;;;;;;;;;;;;;;-3.98;74.07;101767.78;3132267;28;19941;-69
2024/01/22 04:08:38;;;;;;;;;;;;;;;-3.97;74.31;101773.72;3132461;28;19931;-70
2024/01/22 04:10:11;;;;;;;;;;;;;;;-3.98;74.35;101766.91;3132267;28;19932;-68
2024/01/22 04:11:41;;;;;;;;;;;;;;;-3.99;74.37;101760.94;3132188;28;19932;-68
2024/01/22 04:13:13;;;;;;;;;;;;;;;-4.01;74.20;101769.31;3132268;28;19947;-69
2024/01/22 04:14:43;;;;;;;;;;;;;;;-4.07;74.20;101772.44;3132249;28;19982;-67
2024/01/22 04:16:15;;;;;;;;;;;;;;;-4.39;74.30;101715.88;3131820;28;20007;-67
2024/01/22 04:17:46;;;;;;;;;;;;;;;-4.10;74.20;101779.94;3132403;28;19959;-67
2024/01/22 04:19:17;;;;;;;;;;;;;;;-4.13;74.33;101775.56;3132416;28;19925;-66
2024/01/22 04:20:48;;;;;;;;;;;;;;;-4.12;74.27;101784.94;3132109;28;19929;-67
2024/01/22 04:22:19;;;;;;;;;;;;;;;-4.08;74.43;101773.25;3130776;28;20019;-67
2024/01/22 04:23:51;;;;;;;;;;;;;;;-4.07;74.21;101777.53;3131915;28;19933;-67
2024/01/22 04:25:23;;;;;;;;;;;;;;;-4.08;74.19;101767.28;3132196;28;19932;-67
2024/01/22 04:26:54;;;;;;;;;;;;;;;-4.09;74.19;101768.94;3132158;28;19990;-67
2024/01/22 04:28:25;;;;;;;;;;;;;;;-4.13;74.09;101783.22;3132126;28;19928;-67
2024/01/22 04:29:56;;;;;;;;;;;;;;;-4.20;74.04;101780.28;3131931;28;19947;-66
2024/01/22 04:31:27;;;;;;;;;;;;;;;-4.25;74.09;101780.09;3131798;28;19925;-65
2024/01/22 04:32:58;;;;;;;;;;;;;;;-4.29;74.08;101775.66;3132293;28;19936;-65
2024/01/22 04:34:29;;;;;;;;;;;;;;;-4.33;74.33;101776.31;3132013;28;20398;-65
2024/01/22 04:36:00;;;;;;;;;;;;;;;-4.36;74.35;101781.25;3131735;28;19932;-67
2024/01/22 04:37:32;;;;;;;;;;;;;;;-4.36;74.38;101777.03;3131867;28;20350;-65
2024/01/22 04:39:03;;;;;;;;;;;;;;;-4.36;74.26;101774.50;3132100;28;19939;-66
2024/01/22 04:40:36;;;;;;;;;;;;;;;-4.37;74.29;101772.78;3131868;28;19936;-67
2024/01/22 04:42:06;;;;;;;;;;;;;;;-4.38;74.16;101776.13;3131959;28;19931;-66
2024/01/22 04:43:38;;;;;;;;;;;;;;;-4.38;74.38;101780.31;3131882;28;19925;-67
2024/01/22 04:45:08;;;;;;;;;;;;;;;-4.39;74.22;101783.66;3132008;28;20409;-65
2024/01/22 04:46:40;;;;;;;;;;;;;;;-4.40;74.17;101789.56;3131658;28;19935;-70
2024/01/22 04:48:10;;;;;;;;;;;;;;;-4.40;74.22;101782.81;3131729;28;20170;-70
2024/01/22 04:49:42;;;;;;;;;;;;;;;-4.41;74.10;101783.59;3131985;28;20422;-72
2024/01/22 04:51:12;;;;;;;;;;;;;;;-4.41;74.05;101785.25;3132169;28;19932;-69
2024/01/22 04:52:44;;;;;;;;;;;;;;;-4.43;74.08;101781.78;3131903;28;19929;-69
2024/01/22 04:54:14;;;;;;;;;;;;;;;-4.46;74.19;101784.19;3131707;28;20321;-67
2024/01/22 04:55:47;;;;;;;;;;;;;;;-4.51;73.96;101783.94;3131693;28;19929;-67
2024/01/22 04:57:18;;;;;;;;;;;;;;;-4.54;74.21;101783.81;3131001;28;19952;-66
2024/01/22 04:58:49;;;;;;;;;;;;;;;-4.59;74.08;101786.13;3131840;28;19929;-65
2024/01/22 05:00:20;;;;;;;;;;;;;;;-4.65;74.04;101783.28;3131792;28;19929;-66
2024/01/22 05:01:51;;;;;;;;;;;;;;;-4.65;74.33;101787.50;3131647;28;20294;-66
2024/01/22 05:03:23;;;;;;;;;;;;;;;-4.67;74.29;101784.03;3131314;28;19936;-65
2024/01/22 05:04:57;;;;;;;;;;;;;;;-4.68;74.38;101782.28;3132130;28;19935;-65
2024/01/22 05:06:28;;;;;;;;;;;;;;;-4.66;74.25;101783.22;3131860;28;19929;-66
2024/01/22 05:07:59;;;;;;;;;;;;;;;-4.67;74.25;101787.44;3131699;28;19977;-64
2024/01/22 05:09:30;;;;;;;;;;;;;;;-4.67;74.24;101782.34;3131557;28;20306;-68
2024/01/22 05:11:03;;;;;;;;;;;;;;;-4.66;74.28;101783.22;3131839;28;19932;-67
2024/01/22 05:12:34;;;;;;;;;;;;;;;-4.67;74.42;101791.66;3130438;28;19929;-77
2024/01/22 05:14:05;;;;;;;;;;;;;;;-4.67;74.28;101789.13;3131532;28;19933;-66
2024/01/22 05:15:36;;;;;;;;;;;;;;;-4.65;74.29;101792.59;3131027;28;19998;-68
2024/01/22 05:17:07;;;;;;;;;;;;;;;-4.64;74.49;101799.44;3131877;28;19925;-69
2024/01/22 05:18:38;;;;;;;;;;;;;;;-4.63;74.49;101791.00;3131782;28;20413;-69
2024/01/22 05:20:10;;;;;;;;;;;;;;;-4.61;74.54;101786.88;3131829;28;19935;-71
2024/01/22 05:21:41;;;;;;;;;;;;;;;-4.57;74.47;101798.91;3131803;28;19929;-65
2024/01/22 05:23:12;;;;;;;;;;;;;;;-4.54;74.29;101795.66;3131644;28;19924;-62
2024/01/22 05:24:43;;;;;;;;;;;;;;;-4.51;74.40;101798.34;3131497;28;20369;-62
2024/01/22 05:26:16;;;;;;;;;;;;;;;-4.49;74.21;101796.75;3129852;28;19924;-66
2024/01/22 05:27:47;;;;;;;;;;;;;;;-4.49;74.30;101794.22;3130340;28;19929;-69
2024/01/22 05:29:19;;;;;;;;;;;;;;;-4.47;74.29;101788.38;3131786;28;19928;-68
2024/01/22 05:31:55;;;;;;;26.77;10.00;;;;;;;-4.36;74.14;101794.84;3110903;28;20931;-70
2024/01/22 05:33:26;;;;;;;66.45;22.83;;;;;;;-4.36;74.16;101777.03;3103565;28;20050;-74
2024/01/22 05:34:57;;;;;;;52.85;20.27;;;;;;;-4.22;73.87;101785.34;3104571;28;20447;-69
2024/01/22 05:36:28;;;;;;;73.50;26.45;;;;;;;-4.11;73.70;101796.03;3105316;28;20050;-63
2024/01/22 05:38:00;;;;;;;46.33;19.17;;;;;;;-4.04;73.64;101792.06;3103831;28;20073;-68
2024/01/22 05:39:31;;;;;;;33.80;12.98;;;;;;;-4.07;73.42;101780.06;3105411;28;20050;-67
2024/01/22 05:41:02;;;;;;;34.85;13.43;;;;;;;-4.05;73.31;101778.50;3101785;28;20050;-69
2024/01/22 05:42:34;;;;;;;36.70;13.18;;;;;;;-4.16;73.19;101756.75;3101567;28;20071;-65
2024/01/22 05:44:05;;;;;;;37.30;14.63;;;;;;;-3.99;73.14;101786.41;3105171;28;20424;-67
2024/01/22 05:45:37;;;;;;;36.10;14.00;;;;;;;-4.04;73.07;101777.69;3099289;28;20049;-66
2024/01/22 05:47:09;;;;;;;32.95;13.93;;;;;;;-4.05;73.00;101775.03;3105111;28;20054;-65
2024/01/22 05:48:40;;;;;;;31.60;13.10;;;;;;;-4.04;73.06;101784.44;3105186;28;20332;-67
2024/01/22 05:50:11;;;;;;;36.50;13.52;;;;;;;-4.03;72.99;101792.13;3105063;28;20046;-63
2024/01/22 05:51:43;;;;;;;29.23;12.23;;;;;;;-4.10;72.83;101776.53;3099303;28;20432;-71
2024/01/22 05:53:14;;;;;;;31.23;12.93;;;;;;;-4.10;72.99;101787.56;3092304;28;20050;-69
2024/01/22 05:55:00;;;;;;;29.27;12.10;;;;;;;-4.12;73.08;101791.72;3091462;28;20055;-66
2024/01/22 05:56:32;;;;;;;99.13;37.10;;;;;;;-4.15;73.13;101789.88;3091430;28;20178;-65
2024/01/22 05:58:05;;;;;;;48.58;19.95;;;;;;;-4.12;73.01;101794.25;3093060;28;20061;-69
2024/01/22 05:59:38;;;;;;;34.53;14.05;;;;;;;-4.14;73.02;101796.75;3092782;28;20054;-64
2024/01/22 06:01:10;;;;;;;32.78;12.40;;;;;;;-4.17;73.07;101801.69;3099539;28;20445;-67
2024/01/22 06:02:43;;;;;;;30.17;13.13;;;;;;;-4.19;72.97;101794.78;3104713;28;20089;-67
2024/01/22 06:04:15;;;;;;;29.50;13.27;;;;;;;-4.28;73.11;101776.56;3104786;28;20048;-69
2024/01/22 06:05:46;;;;;;;29.92;12.73;;;;;;;-4.22;72.98;101787.00;3105166;28;20522;-66
2024/01/22 06:07:18;;;;;;;30.27;11.73;;;;;;;-4.22;73.10;101792.97;3105393;28;20046;-69
2024/01/22 06:08:50;;;;;;;38.15;13.55;;;;;;;-4.20;73.00;101795.56;3104012;28;20511;-66
2024/01/22 06:10:22;;;;;;;29.40;13.05;;;;;;;-4.17;73.20;101800.78;3095736;28;20062;-67
2024/01/22 06:11:52;;;;;;;32.60;13.82;;;;;;;-4.29;72.93;101773.09;3097087;28;20046;-67
2024/01/22 06:13:25;;;;;;;40.47;15.55;;;;;;;-4.10;72.89;101802.84;3104946;28;20224;-68
2024/01/22 06:14:57;;;;;;;32.95;13.80;;;;;;;-4.08;72.90;101806.34;3105004;28;20081;-71
2024/01/22 06:16:29;;;;;;;42.50;16.88;;;;;;;-4.23;72.82;101768.34;3097344;28;20576;-69
2024/01/22 06:18:03;;;;;;;40.35;15.02;;;;;;;-4.36;72.75;101736.34;3092600;28;20602;-68
2024/01/22 06:19:33;;;;;;;36.78;14.45;;;;;;;-3.86;72.92;101802.22;3099265;28;20093;-69
2024/01/22 06:21:06;;;;;;;34.17;13.48;;;;;;;-3.82;72.70;101796.47;3102270;28;20248;-73
2024/01/22 06:22:37;;;;;;;25.90;12.32;;;;;;;-3.70;72.74;101808.09;3092205;28;20429;-72
2024/01/22 06:24:09;;;;;;;31.35;12.63;;;;;;;-3.61;72.45;101817.78;3096278;28;20508;-73
2024/01/22 06:25:40;;;;;;;31.00;13.00;;;;;;;-3.52;72.37;101812.22;3104693;28;20458;-70
2024/01/22 06:27:12;;;;;;;29.27;12.23;;;;;;;-3.43;72.39;101805.03;3100546;28;20128;-68
2024/01/22 06:28:43;;;;;;;30.00;11.75;;;;;;;-3.40;72.09;101799.16;3103196;28;20066;-73
2024/01/22 06:30:16;;;;;;;30.63;12.40;;;;;;;-3.28;71.97;101812.47;3093124;28;20050;-70
2024/01/22 06:31:47;;;;;;;27.27;11.57;;;;;;;-3.18;71.91;101813.72;3115278;28;20136;-70
2024/01/22 06:33:21;;;;;;;27.13;11.43;;;;;;;-3.23;71.59;101788.88;3116845;28;20446;-66
2024/01/22 06:34:52;;;;;;;27.95;11.20;;;;;;;-3.01;71.43;101807.66;3117367;28;20529;-72
2024/01/22 06:36:28;;;;;;;34.15;13.10;;;;;;;-2.83;71.25;101813.53;3117078;28;20427;-68
2024/01/22 06:37:59;;;;;;;32.92;12.85;;;;;;;-2.77;71.17;101806.13;3102013;28;20136;-69
2024/01/22 06:39:30;;;;;;;29.38;13.25;;;;;;;-2.56;70.82;101815.47;3107727;28;20057;-63
2024/01/22 06:41:01;;;;;;;29.25;12.52;;;;;;;-2.43;70.64;101811.72;3106354;28;20109;-62
2024/01/22 06:42:33;;;;;;;31.45;13.95;;;;;;;-2.39;70.32;101803.41;3106904;28;20104;-64
2024/01/22 06:44:05;;;;;;;33.28;13.68;;;;;;;-2.28;70.00;101812.31;3108833;28;20157;-63
2024/01/22 06:45:37;;;;;;;32.92;12.70;;;;;;;-2.25;69.52;101816.66;3108277;28;20042;-63
2024/01/22 06:47:08;;;;;;;27.45;11.90;;;;;;;-2.28;69.11;101814.88;3102138;28;20046;-61
2024/01/22 06:48:42;;;;;;;91.05;36.70;;;;;;;-2.25;68.99;101807.34;3097308;28;20062;-67
2024/01/22 06:50:14;;;;;;;58.70;23.70;;;;;;;-2.24;68.56;101811.66;3096586;28;20456;-65
2024/01/22 06:51:47;;;;;;;46.92;21.33;;;;;;;-2.29;68.34;101801.25;3096103;28;20743;-68
2024/01/22 06:53:18;;;;;;;27.60;11.90;;;;;;;-2.27;68.20;101806.44;3107279;28;20523;-67
2024/01/22 06:54:50;;;;;;;25.75;12.88;;;;;;;-2.16;68.05;101812.81;3102854;28;20069;-67
2024/01/22 06:56:20;;;;;;;30.15;12.68;;;;;;;-2.48;67.99;101754.53;3105656;28;20084;-69
2024/01/22 06:57:52;;;;;;;29.77;13.25;;;;;;;-2.08;67.59;101821.63;3098714;28;20050;-67
2024/01/22 06:59:23;;;;;;;28.65;13.13;;;;;;;-2.00;67.57;101828.72;3089989;28;20061;-65
2024/01/22 07:00:55;;;;;;;35.97;13.60;;;;;;;-1.95;67.33;101822.09;3099476;28;20049;-74
2024/01/22 07:02:26;;;;;;;28.95;12.05;;;;;;;-1.83;67.37;101820.91;3103910;28;20508;-73
2024/01/22 07:04:00;;;;;;;30.15;12.38;;;;;;;-1.73;66.90;101824.66;3097886;28;20082;-72
2024/01/22 07:05:33;;;;;;;30.25;11.85;;;;;;;-1.74;66.53;101817.81;3105059;28;20050;-74
2024/01/22 07:07:05;;;;;;;23.98;12.00;;;;;;;-1.63;66.65;101826.75;3096453;28;20069;-72
2024/01/22 07:08:37;;;;;;;27.63;12.38;;;;;;;-1.55;66.46;101833.81;3097898;28;20064;-74
2024/01/22 07:10:09;;;;;;;29.52;12.50;;;;;;;-1.48;66.28;101836.66;3096979;28;20059;-69
2024/01/22 07:11:42;;;;;;;29.90;12.23;;;;;;;-1.46;66.03;101835.00;3100003;28;20058;-66
2024/01/22 07:13:13;;;;;;;33.88;12.32;;;;;;;-1.44;65.70;101837.63;3108061;28;20050;-70
2024/01/22 07:14:45;;;;;;;25.60;11.98;;;;;;;-1.47;65.48;101837.53;3107965;28;20107;-74
2024/01/22 07:16:16;;;;;;;34.08;12.52;;;;;;;-1.38;65.40;101845.53;3108110;28;20435;-70
2024/01/22 07:17:48;;;;;;;30.23;12.50;;;;;;;-1.53;65.41;101804.09;3107998;28;20122;-70
2024/01/22 07:19:20;;;;;;;35.70;13.45;;;;;;;-1.35;64.89;101837.97;3097219;28;20055;-69
2024/01/22 07:20:53;;;;;;;34.95;14.05;;;;;;;-1.39;65.18;101841.22;3100300;28;20050;-69
2024/01/22 07:22:24;;;;;;;29.42;13.35;;;;;;;-1.32;65.00;101838.06;3108046;28;20123;-72
2024/01/22 07:23:56;;;;;;;30.55;13.13;;;;;;;-1.31;64.94;101834.69;3103939;28;20132;-77
2024/01/22 07:25:27;;;;;;;29.45;13.45;;;;;;;-1.30;64.47;101838.13;3097776;28;20054;-74
2024/01/22 07:26:59;;;;;;;33.70;13.90;;;;;;;-1.30;64.45;101836.47;3089135;28;20212;-70
2024/01/22 07:28:30;;;;;;;34.22;13.98;;;;;;;-1.23;64.24;101838.41;3100245;28;20061;-70
2024/01/22 07:30:06;;;;;;;31.13;13.55;;;;;;;-1.21;63.75;101841.03;3106566;28;20054;-72
2024/01/22 07:31:37;;;;;;;39.15;15.13;;;;;;;-1.19;63.53;101839.38;3097531;28;20050;-73
2024/01/22 07:33:09;;;;;;;43.38;15.23;;;;;;;-1.12;63.30;101832.78;3097044;28;20065;-70
2024/01/22 07:34:41;;;;;;;38.92;14.10;;;;;;;-1.06;63.21;101833.88;3095530;28;20456;-64